Tuesday, December 18, 2018, 4:15 PM EST
Back to Local

KIZG, Fryeburg Eastern Slopes Rgnl

Location: Fryeburg, ME, United States Lat: 43.983
Local Time: 4:15 PM EST (21:15 GMT) Lon: -70.95
Time Zone: US/Eastern Elev: 452 ft

Show me the last for .
Show Decoded

2018-12-18 15:54 METAR KIZG 182054Z AUTO 20003KT 10SM CLR M04/M13 A2985 RMK AO2 SLP117 T10441133
                 53020 =
2018-12-18 14:54 METAR KIZG 181954Z AUTO 27008KT 230V290 10SM CLR M04/M13 A2983 RMK AO2 SLP107
                 T10391133 =
2018-12-18 13:54 METAR KIZG 181854Z AUTO 29008KT 260V320 10SM FEW050 M04/M13 A2980 RMK AO2 SLP100
                 T10391128 =
2018-12-18 12:54 METAR KIZG 181754Z AUTO 27008G14KT 240V320 10SM BKN050 M03/M14 A2979 RMK AO2
                 SLP096 T10281139 11028 21067 53010 =
2018-12-18 11:54 METAR KIZG 181654Z AUTO 28008KT 250V310 10SM CLR M04/M14 A2978 RMK AO2 SLP090
                 T10391144 =
2018-12-18 10:54 METAR KIZG 181554Z AUTO 29009G17KT 230V310 10SM CLR M04/M14 A2977 RMK AO2 SLP088
                 T10391144 =
2018-12-18 09:54 METAR KIZG 181454Z AUTO 29008G18KT 10SM CLR M05/M15 A2977 RMK AO2 SLP086
                 T10501150 51033 =
2018-12-18 08:54 METAR KIZG 181354Z AUTO 28012G21KT 240V310 10SM FEW120 M06/M15 A2974 RMK AO2
                 SLP077 T10611150 =
2018-12-18 07:54 METAR KIZG 181254Z AUTO 30008KT 10SM OVC110 M06/M15 A2971 RMK AO2 SLP065
                 T10611150 =
2018-12-18 06:54 METAR KIZG 181154Z AUTO 29007KT 10SM OVC110 M07/M15 A2967 RMK AO2 PK WND
                 29026/1059 SLP052 T10671150 11022 21067 53031 =
2018-12-18 05:54 METAR KIZG 181054Z AUTO 29012G22KT 10SM OVC110 M07/M15 A2963 RMK AO2 SLP040
                 T10671150 =
2018-12-18 04:54 METAR KIZG 180954Z AUTO 28010G17KT 10SM OVC100 M06/M14 A2959 RMK AO2 SLP026
                 T10611144 =
2018-12-18 03:54 METAR KIZG 180854Z AUTO 27012G23KT 230V300 10SM OVC100 M06/M14 A2957 RMK AO2
                 SLP020 T10611144 51033 =
2018-12-18 02:54 METAR KIZG 180754Z AUTO 27009G15KT 10SM BKN100 M05/M13 A2954 RMK AO2 SLP009
                 T10501128 =
2018-12-18 01:54 METAR KIZG 180654Z AUTO 29010G17KT 10SM BKN095 M03/M12 A2951 RMK AO2 SLP999
                 T10331117 =
2018-12-18 00:54 METAR KIZG 180554Z AUTO VRB05G15KT 10SM CLR M02/M09 A2947 RMK AO2 SLP986
                 T10221094 10011 21022 55001 =
2018-12-17 23:54 METAR KIZG 180454Z AUTO 28009G20KT 10SM SCT044 BKN095 M01/M07 A2947 RMK AO2
                 SLP984 T10061072 400221006 =
2018-12-17 22:54 METAR KIZG 180354Z AUTO 27008G18KT 10SM BKN042 BKN050 OVC100 01/M04 A2947 RMK
                 AO2 SLP984 T00061044 =
2018-12-17 21:54 METAR KIZG 180254Z AUTO 30008KT 10SM BKN040 OVC050 01/M04 A2948 RMK AO2 SLP987
                 T00111044 55002 =
2018-12-17 20:54 METAR KIZG 180154Z AUTO VRB06KT 10SM BKN042 OVC049 01/M05 A2948 RMK AO2 SLP986
                 T00111050 =
2018-12-17 19:54 METAR KIZG 180054Z AUTO VRB05KT 10SM BKN050 OVC100 01/M05 A2948 RMK AO2 SLP987
                 T00111050 =
2018-12-17 18:54 METAR KIZG 172354Z AUTO 00000KT 10SM OVC045 01/M03 A2948 RMK AO2 SLP988 60000
                 T00111033 10022 20000 53004 =
2018-12-17 17:54 METAR KIZG 172254Z AUTO 29011G18KT 10SM OVC038 02/M03 A2947 RMK AO2 SLP986
                 T00171033 =
2018-12-17 16:54 METAR KIZG 172154Z AUTO 00000KT 10SM SCT039 OVC050 00/00 A2947 RMK AO2 SLP984
                 T00000000 =

Support USWX by starting your Amazon purchase here.